Alm Zurich — V7NG2 — position and weather

sailwx.info

Track history (hours):
 
Tides and Currents Weather Stations Pressure Air Temp Water Temp Dewpoint Dewpoint Depression Visibility Wind Speed Wind Dir Waves Ship Positions

Alm Zurich

Last reported at 2017-Oct-10 02:16 UTC. Time now 2017-Oct-20 15:57 UTC.
Position N 31°35' W 124°29'.
Warning: this ship's position is 10 days out of date.

Length 294 m; draft 10.4 m.

Type: Ship (hazmat cat A). MMSI: 538002956.

Date/timePositionNaut miles runAvg speedWind from/ knotsBaromVisibWave heightAir tempDewpointWater temp
2017-Oct-10 02:16N 31°35' W 124°29'416.4
2017-Oct-10 02:00N 31°33' W 124°24'816.5
2017-Oct-10 01:30N 31°29' W 124°16'1816.4
2017-Oct-10 00:26N 31°20' W 123°58'2316.2
2017-Oct-09 23:02N 31°06' W 123°37'116.4
2017-Oct-09 22:58N 31°06' W 123°36'816.1
2017-Oct-09 22:27N 31°01' W 123°28'1116.0
2017-Oct-09 21:45N 30°54' W 123°18'1716.4
2017-Oct-09 20:43N 30°44' W 123°02'816.4
2017-Oct-09 20:15N 30°40' W 122°55'416.3
2017-Oct-09 20:00N 30°37' W 122°51'816.2
2017-Oct-09 19:30N 30°32' W 122°43'1016.2
2017-Oct-09 18:52N 30°26' W 122°34'7216.1
2017-Oct-09 14:24N 29°43' W 121°27'4716.3
2017-Oct-09 11:30N 29°15' W 120°43'1916.1
2017-Oct-09 10:20N 29°04' W 120°26'1216.1
2017-Oct-09 09:36N 28°57' W 120°15'216.0
2017-Oct-09 09:29N 28°56' W 120°13'1316.3
2017-Oct-09 08:41N 28°48' W 120°01'316.1
2017-Oct-09 08:29N 28°47' W 119°58'2716.3
2017-Oct-09 06:49N 28°30' W 119°33'2116.2
2017-Oct-09 05:31N 28°18' W 119°14'6016.0
2017-Oct-09 01:47N 27°42' W 118°20'516.3
2017-Oct-09 01:30N 27°40' W 118°15'1716.0
2017-Oct-09 00:27N 27°30' W 117°60'2616.0
2017-Oct-08 22:48N 27°14' W 117°36'516.3
2017-Oct-08 22:30N 27°11' W 117°32'3316.1
2017-Oct-08 20:27N 26°52' W 117°02'816.3
2017-Oct-08 19:58N 26°47' W 116°55'916.4
2017-Oct-08 19:27N 26°42' W 116°47'716.5
2017-Oct-08 19:00N 26°38' W 116°41'916.4
2017-Oct-08 18:29N 26°33' W 116°33'816.4
2017-Oct-08 18:00N 26°28' W 116°26'816.3
2017-Oct-08 17:31N 26°23' W 116°19'916.6
2017-Oct-08 16:59N 26°18' W 116°11'815.9
2017-Oct-08 16:30N 26°13' W 116°04'816.2
2017-Oct-08 16:00N 26°09' W 115°57'816.0
2017-Oct-08 15:30N 26°04' W 115°49'916.0
2017-Oct-08 14:57N 25°59' W 115°41'716.0
2017-Oct-08 14:30N 25°54' W 115°35'1315.8
2017-Oct-08 13:40N 25°46' W 115°23'1416.0
2017-Oct-08 12:48N 25°38' W 115°11'516.2
2017-Oct-08 12:30N 25°35' W 115°07'916.3
2017-Oct-08 11:58N 25°30' W 114°59'1016.0
2017-Oct-08 11:21N 25°24' W 114°50'3616.1
2017-Oct-08 09:06N 25°03' W 114°18'216.2
2017-Oct-08 08:59N 25°02' W 114°16'816.2
2017-Oct-08 08:29N 24°57' W 114°09'1916.2
2017-Oct-08 07:18N 24°46' W 113°52'  
Track history (hours):
 
Tides and Currents Weather Stations Pressure Air Temp Water Temp Dewpoint Dewpoint Depression Visibility Wind Speed Wind Dir Waves Ship Positions

Alm Zurich

Last reported at 2017-Oct-10 02:16 UTC. Time now 2017-Oct-20 15:57 UTC.
Position N 31°35' W 124°29'.
Warning: this ship's position is 10 days out of date.

Length 294 m; draft 10.4 m.

Type: Ship (hazmat cat A). MMSI: 538002956.

Date/timePositionNaut miles runAvg speedWind from/ knotsBaromVisibWave heightAir tempDewpointWater temp
2017-Oct-10 02:16N 31°35' W 124°29'416.4
2017-Oct-10 02:00N 31°33' W 124°24'816.5
2017-Oct-10 01:30N 31°29' W 124°16'1816.4
2017-Oct-10 00:26N 31°20' W 123°58'2316.2
2017-Oct-09 23:02N 31°06' W 123°37'116.4
2017-Oct-09 22:58N 31°06' W 123°36'816.1
2017-Oct-09 22:27N 31°01' W 123°28'1116.0
2017-Oct-09 21:45N 30°54' W 123°18'1716.4
2017-Oct-09 20:43N 30°44' W 123°02'816.4
2017-Oct-09 20:15N 30°40' W 122°55'416.3
2017-Oct-09 20:00N 30°37' W 122°51'816.2
2017-Oct-09 19:30N 30°32' W 122°43'1016.2
2017-Oct-09 18:52N 30°26' W 122°34'7216.1
2017-Oct-09 14:24N 29°43' W 121°27'4716.3
2017-Oct-09 11:30N 29°15' W 120°43'1916.1
2017-Oct-09 10:20N 29°04' W 120°26'1216.1
2017-Oct-09 09:36N 28°57' W 120°15'216.0
2017-Oct-09 09:29N 28°56' W 120°13'1316.3
2017-Oct-09 08:41N 28°48' W 120°01'316.1
2017-Oct-09 08:29N 28°47' W 119°58'2716.3
2017-Oct-09 06:49N 28°30' W 119°33'2116.2
2017-Oct-09 05:31N 28°18' W 119°14'6016.0
2017-Oct-09 01:47N 27°42' W 118°20'516.3
2017-Oct-09 01:30N 27°40' W 118°15'1716.0
2017-Oct-09 00:27N 27°30' W 117°60'2616.0
2017-Oct-08 22:48N 27°14' W 117°36'516.3
2017-Oct-08 22:30N 27°11' W 117°32'3316.1
2017-Oct-08 20:27N 26°52' W 117°02'816.3
2017-Oct-08 19:58N 26°47' W 116°55'916.4
2017-Oct-08 19:27N 26°42' W 116°47'716.5
2017-Oct-08 19:00N 26°38' W 116°41'916.4
2017-Oct-08 18:29N 26°33' W 116°33'816.4
2017-Oct-08 18:00N 26°28' W 116°26'816.3
2017-Oct-08 17:31N 26°23' W 116°19'916.6
2017-Oct-08 16:59N 26°18' W 116°11'815.9
2017-Oct-08 16:30N 26°13' W 116°04'816.2
2017-Oct-08 16:00N 26°09' W 115°57'816.0
2017-Oct-08 15:30N 26°04' W 115°49'916.0
2017-Oct-08 14:57N 25°59' W 115°41'716.0
2017-Oct-08 14:30N 25°54' W 115°35'1315.8
2017-Oct-08 13:40N 25°46' W 115°23'1416.0
2017-Oct-08 12:48N 25°38' W 115°11'516.2
2017-Oct-08 12:30N 25°35' W 115°07'916.3
2017-Oct-08 11:58N 25°30' W 114°59'1016.0
2017-Oct-08 11:21N 25°24' W 114°50'3616.1
2017-Oct-08 09:06N 25°03' W 114°18'216.2
2017-Oct-08 08:59N 25°02' W 114°16'816.2
2017-Oct-08 08:29N 24°57' W 114°09'1916.2
2017-Oct-08 07:18N 24°46' W 113°52'  

Dump ship's entire track history